Halkirk, United Kingdom
Current Conditions -  °F | °C
As of 6:50 PM on Saturday 27 Dec 2014 (Local Time) from EGPC Reporting Station
Few Clouds Few Clouds  
Wind Chill: 23°   Ceiling: Unl
Heat Index: 30°   Visibility: 6mi
Dew Point: 30°   Wind: 7mph
Humidity: 100%   Direction: 340°NNW
Pressure: 30"   Gusts: NA
Location:  58.5°N, 3.48°W
Report Text: EGPC 271850Z AUTO 34006KT 9999 FEW032/// M01/M01 Q1016
Loading
Personal Weather Stations






























Interactive Weather Map New forecast layout! Learn more

10-Day Weather Forecast

Advertisements
Track Severe Weather on mobile